EPSC/SZZ METAR and TAF weather

Enter ICAO airport designator
Station Type Date Time Source
EPSC METAR 2018/04/27 01:00 UTC NOAA

EPSC 270100Z 23004KT 200V270 CAVOK 06/04 Q1015


Station Type Date Time Source
EPSC Decoded METAR 2018/04/27 01:00 UTC NOAA

Szczecin, Poland (EPSC) 53-24N 014-37E 3M
Apr 26, 2018 - 09:00 PM EDT / 2018.04.27 0100 UTC
Wind: from the SW (230 degrees) at 5 MPH (4 KT) (direction variable):0
Visibility: greater than 7 mile(s):0
Temperature: 42 F (6 C)
Dew Point: 39 F (4 C)
Relative Humidity: 86%
Pressure (altimeter): 29.97 in. Hg (1015 hPa)
ob: EPSC 270100Z 23004KT 200V270 CAVOK 06/04 Q1015
cycle: 1

Station Type Date Time Source
EPSC TAF 2018/04/26 18:33 UTC NOAA

TAF EPSC 261730Z 2618/2718 25008KT CAVOK
TEMPO 2618/2622 -SHRA BKN025CB PROB40
TEMPO 2710/2718 -SHRA BKN030CB


Example: see airport list